Sapelo Island, GA (31327)

7:10 AM EDT on July 24, 2014 (GMT -0400)
Glynco Jetport (KBQK) Elev 26 ft | 31.26 °N, 81.47 °W | Change Station

Current weather conditions updated 20 minutes ago

Clear
Clear
77 °F
Feels Like 77 °F
N
0
Wind Variable Wind from North

Today is forecast to be nearly the same temperature as yesterday. Thunderstorms early tonight.

Today
High -- | Low -- °F
--% Chance of Precip.
Yesterday
High -- | Low -- °F
Precip. -- in
6:36 AM 8:26 PM
Waning Crescent, 6% visible
Pressure 30.01 in
Visibility 10.0 miles
Clouds Clear
Dew Point 72 °F
Humidity 83%
Rainfall 0.00 in
Snow Depth Not available.
UV 0 out of 12
Pollen 3.30 out of 12
Air Quality Not available.
Flu Activity Not available.
METAR KBQK 241050Z AUTO 00000KT 10SM CLR 25/22 A3001 RMK AO1

More Conditions Fewer Conditions

Pressure 30.01 in
Visibility 10.0 miles
Clouds Clear
Dew Point 72 °F
Humidity 83%
Rainfall 0.00 in
Snow Depth Not available.
UV 0 out of 12
Pollen 3.30 out of 12
Air Quality Not available.
Flu Activity Not available.
METAR KBQK 241050Z AUTO 00000KT 10SM CLR 25/22 A3001 RMK AO1

More Conditions Fewer Conditions

10-Day Weather Forecast

Almanac

Astronomy

Jul. 24, 2014 Rise Set
Actual Time 6:36 AM EDT 8:26 PM EDT
Civil Twilight 6:09 AM EDT 8:53 PM EDT
Nautical Twilight 5:36 AM EDT 9:25 PM EDT
Astronomical Twilight 5:02 AM EDT 10:00 PM EDT
Moon 4:41 AM EDT 6:42 PM EDT
Length of Visible Light 14h 43m
Length of Day
13h 50m
Tomorrow will be 1m 15s shorter.
Waning Crescent, 6% of the Moon is Illuminated
Today
Waning Crescent
Jul 26
New
Aug 3
First Quarter
Aug 10
Full
Aug 17
Last Quarter

Today's Extremes

State Highs State Lows

Community

WunderPhotos

Upload Photos

1,736,971 photos uploaded!

Nearby

Snow Depth

Station Depth Elevation
No new snow has been reported.

Earthquake Activity

City Distance Mag. Time & Date
No recent earthquake activity has been reported nearby.
Minimum magnitude displayed is 2.5.

Coastal Water Temperatures

Place Temperature
No Stations Reporting

Nearby Weather Stations

Station Location Temp. Heat Index Dew Point Humidity Wind Precip. Elev Updated Type
Country Walk, Brunswick, GA 75.9 °F 76 °F 73 °F 92% South  at  0.0 mph 0.00 in / hr 30 ft 7:10 AM EDT Rapid Fire
Avalon Place, Brunswick, GA 75.4 °F 74 °F 74 °F 95% West  at  0.0 mph 0.00 in / hr 43 ft 7:10 AM EDT Rapid Fire
RAWS STERLING GA, Brunswick, GA 73 °F - 71 °F 94% SW  at  1 mph 0.00 in / hr 13 ft 6:04 AM EDT MADIS

Show More Stations Show Fewer Stations